Medicine Hat Airport, Alberta

Past 24 Hour Conditions

Date / Time
(MDT)
Conditions Temp
(°F)
Humidity
(%)
Dew Point
(°F)
Wind
(mph)
Pressure
(inches)
Visibility
(miles)
20 October 2014
2:00 Clear 48 72 39 SW 9 29.8 10
1:00 Clear 53 63 41 SSW 11 29.8 10
00:00 Clear 59 50 40 S 15 gust 22 29.8 10
19 October 2014
23:00 Clear 51 67 40 SW 7 29.8 10
22:00 Clear 58 52 40 SSW 7 29.8 10
21:00 Partly Cloudy 58 48 38 SSW 9 29.8 15
20:00 Partly Cloudy 55 52 38 S 3 29.9 15
19:00 Partly Cloudy 59 44 37 SSE 7 29.9 15
18:00 Mostly Cloudy 65 36 38 SSE 9 29.9 30
17:00 Mostly Cloudy 71 29 38 S 8 29.9 30
16:00 Mostly Cloudy 72   29 38 SSW 13 29.9 30
15:00 Mostly Cloudy 71 30 38 SSW 14 gust 21 29.9 30
14:00 Mostly Cloudy 71 30 38 SSW 13 gust 22 29.9 30
13:00 Cloudy 69 33 39 SSW 12 gust 19 29.9 30
12:00 Mostly Cloudy 65 40 41 SSW 12 29.9 30
11:00 Mostly Cloudy 55 64 43 ESE 3 29.9 30
10:00 Mostly Cloudy 51 67 41 SW 7 29.9 30
9:00 Mostly Cloudy 45 80 39 SSW 7 30.0 30
8:00 Partly Cloudy 39 91 36 SW 7 30.0 30
7:00 Clear 39 90 37 SW 7 29.9 10
6:00 Clear 38   91 36 SW 7 29.9 10
5:00 Clear 40 89 37 WSW 3 29.9 10
4:00 Clear 40 90 37 SW 3 29.9 10
3:00 Clear 42 85 38 SSW 6 29.9 10
2:00 Clear 46 77 39 SSW 11 29.9 10
N/A Not available
↑ Highest temperature
↓ Lowest temperature

If you require additional historical weather information, please visit Climate Data Online.

Date modified: